createdAt,value
2018-11-14T00:01:01.037Z,15.32
2018-11-14T00:03:28.429Z,15.23
2018-11-14T00:05:55.825Z,15.41
2018-11-14T00:08:23.229Z,15.06
2018-11-14T00:10:50.965Z,15.41
2018-11-14T00:13:18.529Z,15.14
2018-11-14T00:15:45.894Z,15.15
2018-11-14T00:18:13.323Z,15.48
2018-11-14T00:20:40.795Z,15.45
2018-11-14T00:23:08.234Z,15.47
2018-11-14T00:25:35.845Z,15.82
2018-11-14T00:28:03.757Z,15.19
2018-11-14T00:30:30.875Z,15.57
2018-11-14T00:32:58.384Z,15.69
2018-11-14T00:35:25.811Z,15.45
2018-11-14T00:37:53.185Z,15.99
2018-11-14T00:40:21.135Z,15.77
2018-11-14T00:42:48.859Z,15.62
2018-11-14T00:45:17.593Z,15.82
2018-11-14T00:47:46.088Z,15.46
2018-11-14T00:50:14.354Z,15.48
2018-11-14T00:52:42.438Z,15.71
2018-11-14T00:55:12.978Z,15.15
2018-11-14T00:57:40.958Z,15.46
2018-11-14T01:00:10.875Z,15.22
2018-11-14T01:02:38.540Z,15.64
2018-11-14T01:05:06.859Z,15.55
2018-11-14T01:07:34.384Z,15.41
2018-11-14T01:10:01.835Z,15.75
2018-11-14T01:12:29.400Z,15.58
2018-11-14T01:14:56.859Z,15.66
2018-11-14T01:17:24.394Z,15.74
2018-11-14T01:19:51.810Z,15.14
2018-11-14T01:22:19.357Z,15.60
2018-11-14T01:24:46.819Z,15.54
2018-11-14T01:27:14.171Z,15.71
2018-11-14T01:29:41.627Z,15.52
2018-11-14T01:32:09.321Z,15.69
2018-11-14T01:34:36.642Z,15.45
2018-11-14T01:37:04.643Z,15.68
2018-11-14T01:39:32.137Z,15.34
2018-11-14T01:41:59.689Z,15.63
2018-11-14T01:44:26.983Z,15.36
2018-11-14T01:46:54.444Z,15.74
2018-11-14T01:49:21.880Z,15.70
2018-11-14T01:51:49.325Z,15.64
2018-11-14T01:54:16.745Z,15.47
2018-11-14T01:56:44.145Z,15.10
2018-11-14T01:59:11.566Z,15.32
2018-11-14T02:01:39.553Z,15.59
2018-11-14T02:04:06.927Z,15.11
2018-11-14T02:06:34.405Z,15.49
2018-11-14T02:09:01.916Z,15.59
2018-11-14T02:11:29.542Z,15.69
2018-11-14T02:13:57.553Z,15.67
2018-11-14T02:16:25.188Z,15.52
2018-11-14T02:18:52.656Z,15.43
2018-11-14T02:21:20.068Z,15.52
2018-11-14T02:23:47.589Z,15.32
2018-11-14T02:26:14.921Z,15.46
2018-11-14T02:28:42.598Z,15.61
2018-11-14T02:31:10.077Z,15.39
2018-11-14T02:33:37.544Z,15.28
2018-11-14T02:36:05.197Z,15.25
2018-11-14T02:38:32.741Z,15.29
2018-11-14T02:41:00.166Z,15.27
2018-11-14T02:43:27.673Z,15.32
2018-11-14T02:45:55.042Z,15.26
2018-11-14T02:48:22.339Z,15.14
2018-11-14T02:50:59.876Z,15.24
2018-11-14T02:53:27.192Z,15.01
2018-11-14T02:56:06.994Z,15.28
2018-11-14T02:58:34.425Z,15.25
2018-11-14T03:01:01.773Z,15.16
2018-11-14T03:03:29.173Z,15.35
2018-11-14T03:05:56.481Z,15.12
2018-11-14T03:08:23.964Z,15.14
2018-11-14T03:10:51.560Z,14.90
2018-11-14T03:13:19.003Z,15.11
2018-11-14T03:15:46.375Z,15.07
2018-11-14T03:18:13.800Z,14.92
2018-11-14T03:20:41.177Z,15.05
2018-11-14T03:23:08.508Z,14.90
2018-11-14T03:25:35.892Z,15.04
2018-11-14T03:28:03.370Z,14.95
2018-11-14T03:30:30.732Z,15.06
2018-11-14T03:32:58.079Z,14.89
2018-11-14T03:35:30.056Z,15.00
2018-11-14T03:37:57.444Z,14.91
2018-11-14T03:40:24.827Z,14.58
2018-11-14T03:42:52.199Z,14.81
2018-11-14T03:45:19.518Z,14.67
2018-11-14T03:47:47.404Z,14.37
2018-11-14T03:50:14.727Z,14.53
2018-11-14T03:52:42.137Z,14.61
2018-11-14T03:55:09.660Z,14.49
2018-11-14T03:57:37.129Z,14.81
2018-11-14T04:00:07.716Z,14.68
2018-11-14T04:02:35.092Z,14.81
2018-11-14T04:05:02.452Z,14.75
2018-11-14T04:07:29.850Z,14.75
2018-11-14T04:09:57.245Z,14.97
2018-11-14T04:12:24.630Z,14.94
2018-11-14T04:14:51.996Z,14.96
2018-11-14T04:17:19.346Z,14.86
2018-11-14T04:19:46.804Z,14.84
2018-11-14T04:22:14.189Z,14.78
2018-11-14T04:24:41.571Z,14.74
2018-11-14T04:27:09.019Z,14.57
2018-11-14T04:29:36.423Z,14.52
2018-11-14T04:32:04.197Z,14.43
2018-11-14T04:34:31.715Z,14.17
2018-11-14T04:36:59.131Z,14.64
2018-11-14T04:39:26.653Z,14.66
2018-11-14T04:41:54.181Z,14.38
2018-11-14T04:44:21.628Z,14.51
2018-11-14T04:46:49.074Z,14.36
2018-11-14T04:49:16.493Z,14.64
2018-11-14T04:51:44.097Z,14.64
2018-11-14T04:54:12.409Z,14.45
2018-11-14T04:56:39.936Z,14.50
2018-11-14T04:59:07.375Z,14.49
2018-11-14T05:01:34.851Z,14.60
2018-11-14T05:04:02.207Z,14.39
2018-11-14T05:06:29.753Z,14.72
2018-11-14T05:08:57.192Z,14.80
2018-11-14T05:11:24.634Z,14.73
2018-11-14T05:13:52.137Z,14.20
2018-11-14T05:16:19.572Z,14.55
2018-11-14T05:18:47.202Z,14.86
2018-11-14T05:21:14.646Z,14.88
2018-11-14T05:23:42.238Z,14.71
2018-11-14T05:26:09.697Z,14.72
2018-11-14T05:28:37.130Z,14.69
2018-11-14T05:31:04.845Z,14.70
2018-11-14T05:33:32.793Z,14.02
2018-11-14T05:36:00.227Z,14.31
2018-11-14T05:38:27.735Z,14.43
2018-11-14T05:40:55.166Z,14.51
2018-11-14T05:43:22.578Z,14.62
2018-11-14T05:45:49.910Z,14.46
2018-11-14T05:48:23.480Z,14.03
2018-11-14T05:50:50.908Z,14.44
2018-11-14T05:53:18.434Z,14.30
2018-11-14T05:55:45.759Z,14.29
2018-11-14T05:58:13.124Z,14.67
2018-11-14T06:00:40.519Z,14.80
2018-11-14T06:03:07.977Z,14.43
2018-11-14T06:05:35.307Z,14.32
2018-11-14T06:08:02.729Z,14.45
2018-11-14T06:10:30.139Z,14.50
2018-11-14T06:12:57.550Z,14.05
2018-11-14T06:15:25.011Z,14.49
2018-11-14T06:17:53.749Z,14.43
2018-11-14T06:20:21.925Z,14.49
2018-11-14T06:22:50.356Z,14.45
2018-11-14T06:25:21.564Z,14.57
2018-11-14T06:27:49.866Z,14.50
2018-11-14T06:30:17.304Z,14.37
2018-11-14T06:32:44.664Z,14.59
2018-11-14T06:35:12.539Z,14.58
2018-11-14T06:37:39.975Z,14.43
2018-11-14T06:40:09.008Z,14.54
2018-11-14T06:42:36.466Z,14.60
2018-11-14T06:45:04.380Z,14.46
2018-11-14T06:47:31.690Z,14.57
2018-11-14T06:49:59.182Z,14.59
2018-11-14T06:52:26.625Z,14.33
2018-11-14T06:54:54.210Z,14.48
2018-11-14T06:57:21.639Z,14.69
2018-11-14T06:59:49.527Z,14.68
2018-11-14T07:02:17.876Z,14.49
2018-11-14T07:04:45.345Z,14.39
2018-11-14T07:07:12.764Z,14.36
2018-11-14T07:09:40.159Z,14.20
2018-11-14T07:12:07.537Z,14.49
2018-11-14T07:14:34.910Z,14.14
2018-11-14T07:17:02.599Z,14.46
2018-11-14T07:19:30.044Z,14.39
2018-11-14T07:21:57.464Z,14.25
2018-11-14T07:24:24.847Z,14.55
2018-11-14T07:26:53.265Z,14.38
2018-11-14T07:29:20.587Z,14.70
2018-11-14T07:31:47.987Z,14.64
2018-11-14T07:34:15.344Z,14.71
2018-11-14T07:36:42.789Z,14.58
2018-11-14T07:39:10.157Z,14.81
2018-11-14T07:41:39.805Z,14.70
2018-11-14T07:44:07.426Z,14.48
2018-11-14T07:46:35.960Z,14.65
2018-11-14T07:49:03.797Z,14.50
2018-11-14T07:51:31.748Z,14.52
2018-11-14T07:53:59.368Z,14.82
2018-11-14T07:56:27.362Z,14.18
2018-11-14T07:58:54.724Z,14.31
2018-11-14T08:01:22.558Z,14.54
2018-11-14T08:03:49.937Z,14.22
2018-11-14T08:06:17.513Z,14.55
2018-11-14T08:08:45.434Z,14.76
2018-11-14T08:11:12.803Z,14.72
2018-11-14T08:13:42.853Z,14.83
2018-11-14T08:16:10.268Z,14.89
2018-11-14T08:18:38.387Z,14.85
2018-11-14T08:21:06.438Z,14.90
2018-11-14T08:23:34.213Z,15.38
2018-11-14T08:26:01.660Z,15.17
2018-11-14T08:28:29.023Z,15.14
2018-11-14T08:30:56.383Z,15.23
2018-11-14T08:33:23.849Z,15.20
2018-11-14T08:35:51.224Z,15.53
2018-11-14T08:38:18.701Z,15.70
2018-11-14T08:40:46.131Z,15.52
2018-11-14T08:43:13.529Z,15.60
2018-11-14T08:45:40.905Z,15.77
2018-11-14T08:48:08.976Z,15.85
2018-11-14T08:50:36.331Z,15.83
2018-11-14T08:53:03.991Z,15.63
2018-11-14T08:55:31.439Z,15.92
2018-11-14T08:57:59.056Z,15.78
2018-11-14T09:00:27.506Z,15.53
2018-11-14T09:02:55.045Z,15.73
2018-11-14T09:05:22.416Z,15.72
2018-11-14T09:07:50.241Z,15.65
2018-11-14T09:10:20.005Z,15.84
2018-11-14T09:12:47.919Z,15.96
2018-11-14T09:15:18.586Z,16.16
2018-11-14T09:17:46.200Z,15.97
2018-11-14T09:20:15.107Z,16.27
2018-11-14T09:22:42.936Z,15.91
2018-11-14T09:25:12.708Z,16.07
2018-11-14T09:27:40.506Z,15.92
2018-11-14T09:30:12.507Z,16.00
2018-11-14T09:32:40.038Z,16.28
2018-11-14T09:35:08.876Z,16.08
2018-11-14T09:37:36.536Z,15.85
2018-11-14T09:40:05.350Z,16.04
2018-11-14T09:42:32.782Z,15.93
2018-11-14T09:45:00.255Z,16.04
2018-11-14T09:47:27.680Z,15.93
2018-11-14T09:49:55.064Z,16.45
2018-11-14T09:52:22.751Z,16.12
2018-11-14T09:54:50.214Z,16.21
2018-11-14T09:57:17.632Z,16.38
2018-11-14T09:59:45.069Z,16.12
2018-11-14T10:02:12.551Z,16.35
2018-11-14T10:04:39.922Z,16.82
2018-11-14T10:07:07.918Z,16.48
2018-11-14T10:09:35.297Z,16.98
2018-11-14T10:12:02.775Z,16.98
2018-11-14T10:14:30.157Z,17.13
2018-11-14T10:16:57.515Z,16.87
2018-11-14T10:19:24.997Z,16.99
2018-11-14T10:21:52.568Z,16.92
2018-11-14T10:24:20.003Z,16.94
2018-11-14T10:26:47.429Z,17.29
2018-11-14T10:29:14.989Z,17.20
2018-11-14T10:31:42.468Z,17.18
2018-11-14T10:34:09.873Z,17.35
2018-11-14T10:36:37.192Z,16.71
2018-11-14T10:39:08.197Z,17.23
2018-11-14T10:41:35.581Z,17.03
2018-11-14T10:44:03.104Z,17.45
2018-11-14T10:46:30.568Z,17.70
2018-11-14T10:48:57.945Z,17.51
2018-11-14T10:51:26.427Z,17.43
2018-11-14T10:53:53.811Z,17.58
2018-11-14T10:58:55.393Z,17.67
2018-11-14T11:01:28.446Z,17.74
2018-11-14T11:04:01.572Z,17.41
2018-11-14T11:06:35.455Z,17.55
2018-11-14T11:09:14.012Z,17.90
2018-11-14T11:11:47.771Z,17.78
2018-11-14T11:14:21.160Z,17.69
2018-11-14T11:16:54.173Z,17.73
2018-11-14T11:19:24.023Z,17.92
2018-11-14T11:21:51.486Z,18.06
2018-11-14T11:24:20.272Z,17.77
2018-11-14T11:26:47.618Z,18.18
2018-11-14T11:29:14.976Z,18.63
2018-11-14T11:31:42.455Z,18.51
2018-11-14T11:34:10.532Z,18.53
2018-11-14T11:36:38.270Z,18.64
2018-11-14T11:39:07.996Z,18.56
2018-11-14T11:41:35.662Z,18.18
2018-11-14T11:44:02.992Z,18.86
2018-11-14T11:46:30.378Z,19.15
2018-11-14T11:48:57.764Z,19.16
2018-11-14T11:51:25.264Z,19.12
2018-11-14T11:53:52.752Z,19.04
2018-11-14T11:56:20.105Z,18.94
2018-11-14T11:58:47.514Z,18.95
2018-11-14T12:01:14.879Z,18.85
2018-11-14T12:03:42.303Z,19.09
2018-11-14T12:06:10.172Z,19.07
2018-11-14T12:08:37.411Z,18.84
2018-11-14T12:11:06.243Z,18.97
2018-11-14T12:13:33.779Z,19.18
2018-11-14T12:16:02.015Z,19.14
2018-11-14T12:18:29.227Z,19.46
2018-11-14T12:20:56.954Z,19.64
2018-11-14T12:23:27.716Z,19.38
2018-11-14T12:25:55.374Z,19.37
2018-11-14T12:28:22.801Z,19.33
2018-11-14T12:30:50.337Z,19.67
2018-11-14T12:33:17.702Z,19.63
2018-11-14T12:35:45.184Z,19.50
2018-11-14T12:38:13.037Z,19.51
2018-11-14T12:40:40.373Z,19.80
2018-11-14T12:43:08.346Z,19.58
2018-11-14T12:45:35.779Z,19.95
2018-11-14T12:48:03.178Z,20.10
2018-11-14T12:50:30.584Z,20.26
2018-11-14T12:52:58.172Z,19.86
2018-11-14T12:55:25.663Z,20.15
2018-11-14T12:57:53.093Z,20.09
2018-11-14T13:00:21.132Z,20.27
2018-11-14T13:02:48.458Z,20.17
2018-11-14T13:05:16.071Z,19.95
2018-11-14T13:07:43.686Z,20.16
2018-11-14T13:10:15.509Z,19.88
2018-11-14T13:12:43.781Z,20.02
2018-11-14T13:15:12.332Z,20.10
2018-11-14T13:17:40.252Z,19.70
2018-11-14T13:20:09.295Z,19.92
2018-11-14T13:22:36.655Z,20.23
2018-11-14T13:25:05.459Z,20.18
2018-11-14T13:27:32.913Z,20.27
2018-11-14T13:30:00.285Z,20.13
2018-11-14T13:32:27.977Z,19.94
2018-11-14T13:34:55.448Z,20.03
2018-11-14T13:37:22.843Z,20.21
2018-11-14T13:39:50.265Z,20.30
2018-11-14T13:42:17.674Z,20.25
2018-11-14T13:44:45.016Z,20.42
2018-11-14T13:47:12.502Z,20.32
2018-11-14T13:49:40.081Z,20.15
2018-11-14T13:52:07.403Z,20.27
2018-11-14T13:54:34.735Z,19.94
2018-11-14T13:57:03.136Z,20.02
2018-11-14T13:59:30.591Z,20.06
2018-11-14T14:01:58.012Z,20.02
2018-11-14T14:04:25.411Z,19.79
2018-11-14T14:06:52.796Z,20.01
2018-11-14T14:09:20.406Z,19.92
2018-11-14T14:11:47.760Z,20.08
2018-11-14T14:14:17.062Z,19.86
2018-11-14T14:16:44.970Z,19.75
2018-11-14T14:19:12.820Z,19.69
2018-11-14T14:21:40.210Z,19.73
2018-11-14T14:24:07.838Z,19.59
2018-11-14T14:26:35.953Z,19.78
2018-11-14T14:29:03.784Z,19.67
2018-11-14T14:31:31.299Z,19.57
2018-11-14T14:33:58.658Z,19.67
2018-11-14T14:36:26.117Z,19.29
2018-11-14T14:38:53.534Z,19.59
2018-11-14T14:41:20.873Z,19.66
2018-11-14T14:43:48.327Z,19.53
2018-11-14T14:46:15.698Z,19.44
2018-11-14T14:48:43.108Z,19.52
2018-11-14T14:51:10.504Z,19.48
2018-11-14T14:53:45.072Z,19.41
2018-11-14T14:56:12.529Z,19.30
2018-11-14T14:58:39.953Z,19.46
2018-11-14T15:01:07.411Z,19.37
2018-11-14T15:03:34.899Z,19.49
2018-11-14T15:06:03.214Z,19.34
2018-11-14T15:08:30.748Z,19.17
2018-11-14T15:10:58.187Z,19.24
2018-11-14T15:13:25.576Z,18.93
2018-11-14T15:15:53.054Z,18.92
2018-11-14T15:18:20.461Z,18.86
2018-11-14T15:20:47.808Z,18.72
2018-11-14T15:23:15.350Z,18.63
2018-11-14T15:25:42.764Z,18.61
2018-11-14T15:28:10.184Z,18.75
2018-11-14T15:30:37.670Z,18.74
2018-11-14T15:33:05.000Z,18.72
2018-11-14T15:35:32.432Z,18.57
2018-11-14T15:37:59.807Z,18.35
2018-11-14T15:40:28.567Z,18.28
2018-11-14T15:42:57.015Z,18.16
2018-11-14T15:45:26.752Z,18.14
2018-11-14T15:47:54.274Z,18.02
2018-11-14T15:50:24.102Z,18.05
2018-11-14T15:52:52.552Z,17.92
2018-11-14T15:55:20.474Z,17.93
2018-11-14T15:57:48.472Z,17.95
2018-11-14T16:00:22.971Z,17.77
2018-11-14T16:02:50.469Z,18.00
2018-11-14T16:05:19.338Z,18.08
2018-11-14T16:07:48.050Z,17.87
2018-11-14T16:10:16.924Z,17.74
2018-11-14T16:12:44.902Z,17.78
2018-11-14T16:15:13.782Z,17.97
2018-11-14T16:17:41.671Z,18.03
2018-11-14T16:20:14.337Z,17.81
2018-11-14T16:22:41.681Z,17.66
2018-11-14T16:25:11.466Z,17.68
2018-11-14T16:27:39.285Z,17.82
2018-11-14T16:30:09.831Z,17.70
2018-11-14T16:32:37.167Z,17.69
2018-11-14T16:35:04.735Z,17.67
2018-11-14T16:37:32.159Z,17.57
2018-11-14T16:40:00.330Z,17.67
2018-11-14T16:42:27.858Z,17.60
2018-11-14T16:44:55.328Z,17.53
2018-11-14T16:47:23.239Z,17.45
2018-11-14T16:49:50.595Z,17.43
2018-11-14T16:52:17.981Z,17.57
2018-11-14T16:54:45.318Z,17.49
2018-11-14T16:57:12.833Z,17.52
2018-11-14T16:59:40.301Z,17.44
2018-11-14T17:02:07.780Z,17.38
2018-11-14T17:04:35.141Z,17.27
2018-11-14T17:07:02.480Z,17.14
2018-11-14T17:09:29.972Z,16.99
2018-11-14T17:11:57.332Z,17.04
2018-11-14T17:14:24.726Z,17.00
2018-11-14T17:16:52.186Z,17.09
2018-11-14T17:19:19.798Z,17.20
2018-11-14T17:21:47.236Z,17.06
2018-11-14T17:24:14.714Z,16.91
2018-11-14T17:26:43.092Z,16.87
2018-11-14T17:29:10.502Z,16.66
2018-11-14T17:31:38.016Z,16.69
2018-11-14T17:34:05.462Z,16.93
2018-11-14T17:36:32.899Z,16.83
2018-11-14T17:39:00.372Z,17.00
2018-11-14T17:41:27.762Z,17.02
2018-11-14T17:43:55.138Z,17.08
2018-11-14T17:46:22.772Z,17.01
2018-11-14T17:48:50.664Z,16.99
2018-11-14T17:51:18.106Z,16.99
2018-11-14T17:53:45.432Z,16.89
2018-11-14T17:56:12.809Z,16.98
2018-11-14T17:58:40.164Z,17.02
2018-11-14T18:01:07.556Z,16.96
2018-11-14T18:03:35.017Z,17.00
2018-11-14T18:06:02.411Z,16.95
2018-11-14T18:08:30.349Z,16.95
2018-11-14T18:10:57.737Z,17.03
2018-11-14T18:13:25.259Z,17.06
2018-11-14T18:15:52.693Z,17.01
2018-11-14T18:18:20.301Z,16.95
2018-11-14T18:20:47.672Z,16.97
2018-11-14T18:23:15.361Z,16.91
2018-11-14T18:25:42.821Z,16.87
2018-11-14T18:28:10.184Z,16.84
2018-11-14T18:30:37.759Z,16.87
2018-11-14T18:33:05.262Z,16.82
2018-11-14T18:35:32.692Z,16.86
2018-11-14T18:38:00.882Z,16.76
2018-11-14T18:40:29.713Z,16.72
2018-11-14T18:42:57.137Z,16.75
2018-11-14T18:45:26.702Z,16.69
2018-11-14T18:47:55.006Z,16.66
2018-11-14T18:50:23.053Z,16.52
2018-11-14T18:52:50.850Z,16.66
2018-11-14T18:55:19.600Z,16.73
2018-11-14T18:57:47.985Z,16.69
2018-11-14T19:00:18.542Z,16.64
2018-11-14T19:02:46.145Z,16.63
2018-11-14T19:05:14.292Z,16.60
2018-11-14T19:07:42.093Z,16.63
2018-11-14T19:10:11.319Z,16.53
2018-11-14T19:12:39.385Z,16.49
2018-11-14T19:15:12.771Z,16.51
2018-11-14T19:17:40.524Z,16.37
2018-11-14T19:20:10.299Z,16.23
2018-11-14T19:22:37.807Z,16.32
2018-11-14T19:25:06.639Z,16.30
2018-11-14T19:27:34.081Z,16.21
2018-11-14T19:30:01.437Z,16.22
2018-11-14T19:32:28.803Z,16.12
2018-11-14T19:34:56.190Z,16.18
2018-11-14T19:37:23.534Z,16.22
2018-11-14T19:39:51.053Z,16.32
2018-11-14T19:42:18.592Z,16.25
2018-11-14T19:44:45.987Z,16.40
2018-11-14T19:47:13.356Z,16.53
2018-11-14T19:49:40.816Z,16.56
2018-11-14T19:52:08.808Z,16.47
2018-11-14T19:54:36.273Z,16.47
2018-11-14T19:57:03.780Z,16.49
2018-11-14T19:59:31.170Z,16.40
2018-11-14T20:01:58.631Z,16.36
2018-11-14T20:04:26.022Z,16.22
2018-11-14T20:06:53.446Z,16.17
2018-11-14T20:09:20.924Z,16.21
2018-11-14T20:11:48.340Z,16.24
2018-11-14T20:14:15.716Z,16.14
2018-11-14T20:16:43.062Z,16.11
2018-11-14T20:19:10.468Z,16.13
2018-11-14T20:21:38.879Z,16.14
2018-11-14T20:24:06.283Z,16.14
2018-11-14T20:26:33.741Z,16.14
2018-11-14T20:29:01.188Z,16.12
2018-11-14T20:31:28.749Z,16.21
2018-11-14T20:33:56.093Z,16.18
2018-11-14T20:36:23.541Z,16.20
2018-11-14T20:38:50.882Z,16.24
2018-11-14T20:41:18.324Z,16.28
2018-11-14T20:43:45.648Z,16.14
2018-11-14T20:46:13.077Z,16.13
2018-11-14T20:48:40.480Z,16.32
2018-11-14T20:51:07.991Z,16.19
2018-11-14T20:53:35.349Z,16.26
2018-11-14T20:56:02.823Z,16.17
2018-11-14T20:58:30.305Z,16.14
2018-11-14T21:00:57.782Z,16.17
2018-11-14T21:03:25.239Z,16.17
2018-11-14T21:05:52.635Z,16.04
2018-11-14T21:08:20.019Z,16.19
2018-11-14T21:10:47.480Z,15.99
2018-11-14T21:13:14.931Z,15.99
2018-11-14T21:15:42.417Z,15.87
2018-11-14T21:18:09.862Z,15.65
2018-11-14T21:20:37.331Z,15.72
2018-11-14T21:23:04.958Z,15.57
2018-11-14T21:25:32.328Z,15.46
2018-11-14T21:27:59.781Z,15.48
2018-11-14T21:30:28.387Z,15.22
2018-11-14T21:32:55.786Z,15.02
2018-11-14T21:35:29.806Z,14.81
2018-11-14T21:38:00.539Z,14.56
2018-11-14T21:40:28.369Z,14.85
2018-11-14T21:42:56.009Z,14.86
2018-11-14T21:45:24.732Z,14.55
2018-11-14T21:47:58.640Z,14.65
2018-11-14T21:50:27.155Z,14.89
2018-11-14T21:52:55.129Z,14.99
2018-11-14T21:55:23.250Z,14.95
2018-11-14T21:57:50.596Z,14.59
2018-11-14T22:00:20.367Z,14.53
2018-11-14T22:02:49.245Z,14.61
2018-11-14T22:05:16.644Z,14.62
2018-11-14T22:07:44.101Z,14.59
2018-11-14T22:10:13.817Z,14.50
2018-11-14T22:12:41.871Z,14.57
2018-11-14T22:15:11.499Z,14.54
2018-11-14T22:17:39.485Z,14.49
2018-11-14T22:20:09.139Z,14.47
2018-11-14T22:22:36.530Z,14.38
2018-11-14T22:25:03.895Z,14.40
2018-11-14T22:27:31.383Z,14.31
2018-11-14T22:29:58.938Z,14.36
2018-11-14T22:32:27.018Z,14.38
2018-11-14T22:34:54.578Z,14.36
2018-11-14T22:37:22.326Z,14.24
2018-11-14T22:39:50.006Z,14.25
2018-11-14T22:42:17.407Z,14.07
2018-11-14T22:44:44.775Z,14.02
2018-11-14T22:47:12.193Z,13.97
2018-11-14T22:49:39.625Z,13.90
2018-11-14T22:52:07.096Z,13.81
2018-11-14T22:54:35.038Z,13.78
2018-11-14T22:57:02.464Z,13.76
2018-11-14T22:59:29.884Z,13.53
2018-11-14T23:01:57.386Z,13.50
2018-11-14T23:04:24.830Z,13.60
2018-11-14T23:06:52.406Z,13.46
2018-11-14T23:09:19.766Z,13.41
2018-11-14T23:11:47.294Z,13.32
2018-11-14T23:14:14.744Z,13.13
2018-11-14T23:16:42.221Z,13.14
2018-11-14T23:19:09.681Z,13.34
2018-11-14T23:21:37.013Z,13.28
2018-11-14T23:24:04.888Z,13.29
2018-11-14T23:26:32.272Z,13.37
2018-11-14T23:28:59.648Z,13.26
2018-11-14T23:31:27.038Z,13.29
2018-11-14T23:33:54.402Z,13.40
2018-11-14T23:36:21.784Z,13.19
2018-11-14T23:38:49.120Z,13.10
2018-11-14T23:41:16.587Z,13.14
2018-11-14T23:43:44.052Z,13.06
2018-11-14T23:46:11.414Z,13.05
2018-11-14T23:48:38.818Z,13.12
2018-11-14T23:51:06.294Z,13.28
2018-11-14T23:53:33.726Z,13.28
2018-11-14T23:56:01.249Z,13.34
2018-11-14T23:58:28.632Z,13.46
